sensor_id;sensor_type;location;lat;lon;timestamp;temperature;humidity
86590;SHT31;77250;43.320;28.012;2024-03-29T00:00:12;9.745;71
86590;SHT31;77250;43.320;28.012;2024-03-29T00:00:32;9.74;71
86590;SHT31;77250;43.320;28.012;2024-03-29T00:00:51;9.74;72
86590;SHT31;77250;43.320;28.012;2024-03-29T00:01:11;9.735;72
86590;SHT31;77250;43.320;28.012;2024-03-29T00:01:30;9.735;72
86590;SHT31;77250;43.320;28.012;2024-03-29T00:01:49;9.73;72
86590;SHT31;77250;43.320;28.012;2024-03-29T00:02:08;9.725;72
86590;SHT31;77250;43.320;28.012;2024-03-29T00:02:27;9.72;72
86590;SHT31;77250;43.320;28.012;2024-03-29T00:02:46;9.72;72
86590;SHT31;77250;43.320;28.012;2024-03-29T00:03:06;9.715;72
86590;SHT31;77250;43.320;28.012;2024-03-29T00:03:25;9.71;72
86590;SHT31;77250;43.320;28.012;2024-03-29T00:03:44;9.71;72
86590;SHT31;77250;43.320;28.012;2024-03-29T00:04:03;9.705;72
86590;SHT31;77250;43.320;28.012;2024-03-29T00:04:22;9.705;72
86590;SHT31;77250;43.320;28.012;2024-03-29T00:04:41;9.705;72
86590;SHT31;77250;43.320;28.012;2024-03-29T00:05:01;9.7;72
86590;SHT31;77250;43.320;28.012;2024-03-29T00:05:20;9.7;72
86590;SHT31;77250;43.320;28.012;2024-03-29T00:05:39;9.695;72
86590;SHT31;77250;43.320;28.012;2024-03-29T00:05:58;9.695;72
86590;SHT31;77250;43.320;28.012;2024-03-29T00:06:17;9.695;72
86590;SHT31;77250;43.320;28.012;2024-03-29T00:06:36;9.69;72
86590;SHT31;77250;43.320;28.012;2024-03-29T00:06:55;9.69;72
86590;SHT31;77250;43.320;28.012;2024-03-29T00:07:14;9.685;72
86590;SHT31;77250;43.320;28.012;2024-03-29T00:07:33;9.685;72
86590;SHT31;77250;43.320;28.012;2024-03-29T00:07:52;9.68;72
86590;SHT31;77250;43.320;28.012;2024-03-29T00:08:11;9.68;71
86590;SHT31;77250;43.320;28.012;2024-03-29T00:08:30;9.675;71
86590;SHT31;77250;43.320;28.012;2024-03-29T00:08:49;9.67;71
86590;SHT31;77250;43.320;28.012;2024-03-29T00:09:08;9.665;71
86590;SHT31;77250;43.320;28.012;2024-03-29T00:09:27;9.66;71
86590;SHT31;77250;43.320;28.012;2024-03-29T00:09:46;9.66;71
86590;SHT31;77250;43.320;28.012;2024-03-29T00:10:06;9.655;72
86590;SHT31;77250;43.320;28.012;2024-03-29T00:10:25;9.65;72
86590;SHT31;77250;43.320;28.012;2024-03-29T00:10:46;9.65;72
86590;SHT31;77250;43.320;28.012;2024-03-29T00:11:05;9.645;72
86590;SHT31;77250;43.320;28.012;2024-03-29T00:11:24;9.64;72
86590;SHT31;77250;43.320;28.012;2024-03-29T00:11:43;9.63;72
86590;SHT31;77250;43.320;28.012;2024-03-29T00:12:03;9.625;71
86590;SHT31;77250;43.320;28.012;2024-03-29T00:12:22;9.62;72
86590;SHT31;77250;43.320;28.012;2024-03-29T00:12:41;9.61;72
86590;SHT31;77250;43.320;28.012;2024-03-29T00:13:00;9.605;72
86590;SHT31;77250;43.320;28.012;2024-03-29T00:13:19;9.595;72
86590;SHT31;77250;43.320;28.012;2024-03-29T00:13:39;9.59;73
86590;SHT31;77250;43.320;28.012;2024-03-29T00:13:58;9.585;73
86590;SHT31;77250;43.320;28.012;2024-03-29T00:14:17;9.575;73
86590;SHT31;77250;43.320;28.012;2024-03-29T00:14:36;9.57;73
86590;SHT31;77250;43.320;28.012;2024-03-29T00:14:55;9.565;73
86590;SHT31;77250;43.320;28.012;2024-03-29T00:15:14;9.56;73
86590;SHT31;77250;43.320;28.012;2024-03-29T00:15:33;9.56;72
86590;SHT31;77250;43.320;28.012;2024-03-29T00:15:52;9.555;72
86590;SHT31;77250;43.320;28.012;2024-03-29T00:16:11;9.545;72
86590;SHT31;77250;43.320;28.012;2024-03-29T00:16:30;9.54;72
86590;SHT31;77250;43.320;28.012;2024-03-29T00:16:49;9.535;72
86590;SHT31;77250;43.320;28.012;2024-03-29T00:17:08;9.53;72
86590;SHT31;77250;43.320;28.012;2024-03-29T00:17:27;9.52;72
86590;SHT31;77250;43.320;28.012;2024-03-29T00:17:47;9.515;72
86590;SHT31;77250;43.320;28.012;2024-03-29T00:18:06;9.51;72
86590;SHT31;77250;43.320;28.012;2024-03-29T00:18:25;9.505;72
86590;SHT31;77250;43.320;28.012;2024-03-29T00:18:44;9.495;72
86590;SHT31;77250;43.320;28.012;2024-03-29T00:19:03;9.49;72
86590;SHT31;77250;43.320;28.012;2024-03-29T00:19:22;9.48;72
86590;SHT31;77250;43.320;28.012;2024-03-29T00:19:41;9.475;72
86590;SHT31;77250;43.320;28.012;2024-03-29T00:20:00;9.47;72
86590;SHT31;77250;43.320;28.012;2024-03-29T00:20:21;9.465;72
86590;SHT31;77250;43.320;28.012;2024-03-29T00:20:40;9.455;72
86590;SHT31;77250;43.320;28.012;2024-03-29T00:20:59;9.45;72
86590;SHT31;77250;43.320;28.012;2024-03-29T00:21:18;9.445;73
86590;SHT31;77250;43.320;28.012;2024-03-29T00:21:37;9.44;73
86590;SHT31;77250;43.320;28.012;2024-03-29T00:21:56;9.435;73
86590;SHT31;77250;43.320;28.012;2024-03-29T00:22:15;9.43;73
86590;SHT31;77250;43.320;28.012;2024-03-29T00:22:34;9.42;73
86590;SHT31;77250;43.320;28.012;2024-03-29T00:22:54;9.415;73
86590;SHT31;77250;43.320;28.012;2024-03-29T00:23:13;9.41;73
86590;SHT31;77250;43.320;28.012;2024-03-29T00:23:31;9.4;73
86590;SHT31;77250;43.320;28.012;2024-03-29T00:23:50;9.395;73
86590;SHT31;77250;43.320;28.012;2024-03-29T00:24:10;9.39;73
86590;SHT31;77250;43.320;28.012;2024-03-29T00:24:29;9.385;74
86590;SHT31;77250;43.320;28.012;2024-03-29T00:24:47;9.38;74
86590;SHT31;77250;43.320;28.012;2024-03-29T00:25:07;9.375;74
86590;SHT31;77250;43.320;28.012;2024-03-29T00:25:26;9.37;74
86590;SHT31;77250;43.320;28.012;2024-03-29T00:25:45;9.365;74
86590;SHT31;77250;43.320;28.012;2024-03-29T00:26:04;9.365;74
86590;SHT31;77250;43.320;28.012;2024-03-29T00:26:23;9.36;74
86590;SHT31;77250;43.320;28.012;2024-03-29T00:26:42;9.355;74
86590;SHT31;77250;43.320;28.012;2024-03-29T00:27:01;9.355;74
86590;SHT31;77250;43.320;28.012;2024-03-29T00:27:21;9.35;74
86590;SHT31;77250;43.320;28.012;2024-03-29T00:27:40;9.35;74
86590;SHT31;77250;43.320;28.012;2024-03-29T00:27:58;9.345;74
86590;SHT31;77250;43.320;28.012;2024-03-29T00:28:18;9.34;74
86590;SHT31;77250;43.320;28.012;2024-03-29T00:28:38;9.335;74
86590;SHT31;77250;43.320;28.012;2024-03-29T00:28:57;9.33;74
86590;SHT31;77250;43.320;28.012;2024-03-29T00:29:16;9.325;74
86590;SHT31;77250;43.320;28.012;2024-03-29T00:29:35;9.32;74
86590;SHT31;77250;43.320;28.012;2024-03-29T00:29:54;9.31;74
86590;SHT31;77250;43.320;28.012;2024-03-29T00:30:13;9.305;74
86590;SHT31;77250;43.320;28.012;2024-03-29T00:30:32;9.3;74
86590;SHT31;77250;43.320;28.012;2024-03-29T00:30:51;9.295;74
86590;SHT31;77250;43.320;28.012;2024-03-29T00:31:10;9.295;74
86590;SHT31;77250;43.320;28.012;2024-03-29T00:31:30;9.29;74
86590;SHT31;77250;43.320;28.012;2024-03-29T00:31:49;9.285;74
86590;SHT31;77250;43.320;28.012;2024-03-29T00:32:08;9.285;74
86590;SHT31;77250;43.320;28.012;2024-03-29T00:32:27;9.28;74
86590;SHT31;77250;43.320;28.012;2024-03-29T00:32:46;9.28;75
86590;SHT31;77250;43.320;28.012;2024-03-29T00:33:05;9.28;75
86590;SHT31;77250;43.320;28.012;2024-03-29T00:33:24;9.28;75
86590;SHT31;77250;43.320;28.012;2024-03-29T00:33:43;9.28;75
86590;SHT31;77250;43.320;28.012;2024-03-29T00:34:03;9.285;75
86590;SHT31;77250;43.320;28.012;2024-03-29T00:34:21;9.285;75
86590;SHT31;77250;43.320;28.012;2024-03-29T00:34:41;9.285;74
86590;SHT31;77250;43.320;28.012;2024-03-29T00:35:00;9.285;74
86590;SHT31;77250;43.320;28.012;2024-03-29T00:35:19;9.28;74
86590;SHT31;77250;43.320;28.012;2024-03-29T00:35:38;9.28;73
86590;SHT31;77250;43.320;28.012;2024-03-29T00:35:57;9.275;73
86590;SHT31;77250;43.320;28.012;2024-03-29T00:36:16;9.275;73
86590;SHT31;77250;43.320;28.012;2024-03-29T00:36:35;9.275;73
86590;SHT31;77250;43.320;28.012;2024-03-29T00:36:54;9.275;72
86590;SHT31;77250;43.320;28.012;2024-03-29T00:37:13;9.27;72
86590;SHT31;77250;43.320;28.012;2024-03-29T00:37:32;9.27;72
86590;SHT31;77250;43.320;28.012;2024-03-29T00:37:51;9.27;72
86590;SHT31;77250;43.320;28.012;2024-03-29T00:38:10;9.27;72
86590;SHT31;77250;43.320;28.012;2024-03-29T00:38:29;9.265;72
86590;SHT31;77250;43.320;28.012;2024-03-29T00:38:48;9.265;71
86590;SHT31;77250;43.320;28.012;2024-03-29T00:39:07;9.265;71
86590;SHT31;77250;43.320;28.012;2024-03-29T00:39:26;9.265;71
86590;SHT31;77250;43.320;28.012;2024-03-29T00:39:45;9.26;71
86590;SHT31;77250;43.320;28.012;2024-03-29T00:40:05;9.26;71
86590;SHT31;77250;43.320;28.012;2024-03-29T00:40:24;9.255;71
86590;SHT31;77250;43.320;28.012;2024-03-29T00:40:43;9.255;71
86590;SHT31;77250;43.320;28.012;2024-03-29T00:41:02;9.25;71
86590;SHT31;77250;43.320;28.012;2024-03-29T00:41:22;9.245;71
86590;SHT31;77250;43.320;28.012;2024-03-29T00:41:41;9.24;71
86590;SHT31;77250;43.320;28.012;2024-03-29T00:42:00;9.235;72
86590;SHT31;77250;43.320;28.012;2024-03-29T00:42:20;9.23;72
86590;SHT31;77250;43.320;28.012;2024-03-29T00:42:39;9.225;72
86590;SHT31;77250;43.320;28.012;2024-03-29T00:42:58;9.22;72
86590;SHT31;77250;43.320;28.012;2024-03-29T00:43:17;9.215;72
86590;SHT31;77250;43.320;28.012;2024-03-29T00:43:36;9.21;72
86590;SHT31;77250;43.320;28.012;2024-03-29T00:43:55;9.205;73
86590;SHT31;77250;43.320;28.012;2024-03-29T00:44:14;9.2;73
86590;SHT31;77250;43.320;28.012;2024-03-29T00:44:33;9.19;73
86590;SHT31;77250;43.320;28.012;2024-03-29T00:44:52;9.185;74
86590;SHT31;77250;43.320;28.012;2024-03-29T00:45:11;9.175;74
86590;SHT31;77250;43.320;28.012;2024-03-29T00:45:31;9.165;74
86590;SHT31;77250;43.320;28.012;2024-03-29T00:45:50;9.16;74
86590;SHT31;77250;43.320;28.012;2024-03-29T00:46:09;9.15;74
86590;SHT31;77250;43.320;28.012;2024-03-29T00:46:28;9.145;74
86590;SHT31;77250;43.320;28.012;2024-03-29T00:46:48;9.14;75
86590;SHT31;77250;43.320;28.012;2024-03-29T00:47:07;9.13;75
86590;SHT31;77250;43.320;28.012;2024-03-29T00:47:26;9.125;75
86590;SHT31;77250;43.320;28.012;2024-03-29T00:47:46;9.12;75
86590;SHT31;77250;43.320;28.012;2024-03-29T00:48:05;9.115;75
86590;SHT31;77250;43.320;28.012;2024-03-29T00:48:24;9.11;76
86590;SHT31;77250;43.320;28.012;2024-03-29T00:48:43;9.11;76
86590;SHT31;77250;43.320;28.012;2024-03-29T00:49:02;9.105;76
86590;SHT31;77250;43.320;28.012;2024-03-29T00:49:21;9.105;76
86590;SHT31;77250;43.320;28.012;2024-03-29T00:49:40;9.1;75
86590;SHT31;77250;43.320;28.012;2024-03-29T00:49:59;9.1;75
86590;SHT31;77250;43.320;28.012;2024-03-29T00:50:19;9.1;75
86590;SHT31;77250;43.320;28.012;2024-03-29T00:50:38;9.095;76
86590;SHT31;77250;43.320;28.012;2024-03-29T00:50:57;9.095;76
86590;SHT31;77250;43.320;28.012;2024-03-29T00:51:16;9.095;75
86590;SHT31;77250;43.320;28.012;2024-03-29T00:51:35;9.095;75
86590;SHT31;77250;43.320;28.012;2024-03-29T00:51:54;9.09;74
86590;SHT31;77250;43.320;28.012;2024-03-29T00:52:13;9.09;74
86590;SHT31;77250;43.320;28.012;2024-03-29T00:52:32;9.09;74
86590;SHT31;77250;43.320;28.012;2024-03-29T00:52:52;9.09;74
86590;SHT31;77250;43.320;28.012;2024-03-29T00:53:11;9.085;73
86590;SHT31;77250;43.320;28.012;2024-03-29T00:53:30;9.085;73
86590;SHT31;77250;43.320;28.012;2024-03-29T00:53:49;9.085;73
86590;SHT31;77250;43.320;28.012;2024-03-29T00:54:08;9.08;73
86590;SHT31;77250;43.320;28.012;2024-03-29T00:54:28;9.08;73
86590;SHT31;77250;43.320;28.012;2024-03-29T00:54:48;9.08;73
86590;SHT31;77250;43.320;28.012;2024-03-29T00:55:07;9.075;72
86590;SHT31;77250;43.320;28.012;2024-03-29T00:55:26;9.07;72
86590;SHT31;77250;43.320;28.012;2024-03-29T00:55:45;9.065;72
86590;SHT31;77250;43.320;28.012;2024-03-29T00:56:04;9.055;72
86590;SHT31;77250;43.320;28.012;2024-03-29T00:56:23;9.045;73
86590;SHT31;77250;43.320;28.012;2024-03-29T00:56:42;9.035;73
86590;SHT31;77250;43.320;28.012;2024-03-29T00:57:01;9.025;73
86590;SHT31;77250;43.320;28.012;2024-03-29T00:57:21;9.015;73
86590;SHT31;77250;43.320;28.012;2024-03-29T00:57:40;9.005;73
86590;SHT31;77250;43.320;28.012;2024-03-29T00:57:59;8.995;73
86590;SHT31;77250;43.320;28.012;2024-03-29T00:58:18;8.985;74
86590;SHT31;77250;43.320;28.012;2024-03-29T00:58:37;8.98;74
86590;SHT31;77250;43.320;28.012;2024-03-29T00:58:56;8.97;74
86590;SHT31;77250;43.320;28.012;2024-03-29T00:59:15;8.965;75
86590;SHT31;77250;43.320;28.012;2024-03-29T00:59:35;8.96;75
86590;SHT31;77250;43.320;28.012;2024-03-29T00:59:54;8.955;75
86590;SHT31;77250;43.320;28.012;2024-03-29T01:00:13;8.95;75
86590;SHT31;77250;43.320;28.012;2024-03-29T01:00:32;8.945;75
86590;SHT31;77250;43.320;28.012;2024-03-29T01:00:51;8.935;75
86590;SHT31;77250;43.320;28.012;2024-03-29T01:01:10;8.93;75
86590;SHT31;77250;43.320;28.012;2024-03-29T01:01:29;8.925;75
86590;SHT31;77250;43.320;28.012;2024-03-29T01:01:49;8.915;75
86590;SHT31;77250;43.320;28.012;2024-03-29T01:02:08;8.91;76
86590;SHT31;77250;43.320;28.012;2024-03-29T01:02:27;8.905;76
86590;SHT31;77250;43.320;28.012;2024-03-29T01:02:46;8.9;77
86590;SHT31;77250;43.320;28.012;2024-03-29T01:03:05;8.9;77
86590;SHT31;77250;43.320;28.012;2024-03-29T01:03:24;8.895;77
86590;SHT31;77250;43.320;28.012;2024-03-29T01:03:43;8.895;76
86590;SHT31;77250;43.320;28.012;2024-03-29T01:04:03;8.89;76
86590;SHT31;77250;43.320;28.012;2024-03-29T01:04:22;8.89;77
86590;SHT31;77250;43.320;28.012;2024-03-29T01:04:41;8.885;77
86590;SHT31;77250;43.320;28.012;2024-03-29T01:05:00;8.885;76
86590;SHT31;77250;43.320;28.012;2024-03-29T01:05:20;8.88;76
86590;SHT31;77250;43.320;28.012;2024-03-29T01:05:39;8.88;76
86590;SHT31;77250;43.320;28.012;2024-03-29T01:05:58;8.875;75
86590;SHT31;77250;43.320;28.012;2024-03-29T01:06:17;8.87;75
86590;SHT31;77250;43.320;28.012;2024-03-29T01:06:36;8.865;75
86590;SHT31;77250;43.320;28.012;2024-03-29T01:06:56;8.865;74
86590;SHT31;77250;43.320;28.012;2024-03-29T01:07:15;8.865;74
86590;SHT31;77250;43.320;28.012;2024-03-29T01:07:34;8.86;74
86590;SHT31;77250;43.320;28.012;2024-03-29T01:07:53;8.86;74
86590;SHT31;77250;43.320;28.012;2024-03-29T01:08:12;8.855;74
86590;SHT31;77250;43.320;28.012;2024-03-29T01:08:31;8.855;74
86590;SHT31;77250;43.320;28.012;2024-03-29T01:08:50;8.855;74
86590;SHT31;77250;43.320;28.012;2024-03-29T01:09:09;8.85;74
86590;SHT31;77250;43.320;28.012;2024-03-29T01:09:29;8.85;74
86590;SHT31;77250;43.320;28.012;2024-03-29T01:09:48;8.85;74
86590;SHT31;77250;43.320;28.012;2024-03-29T01:10:07;8.85;74
86590;SHT31;77250;43.320;28.012;2024-03-29T01:10:27;8.85;74
86590;SHT31;77250;43.320;28.012;2024-03-29T01:10:45;8.85;75
86590;SHT31;77250;43.320;28.012;2024-03-29T01:11:05;8.85;75
86590;SHT31;77250;43.320;28.012;2024-03-29T01:11:24;8.845;75
86590;SHT31;77250;43.320;28.012;2024-03-29T01:11:43;8.845;74
86590;SHT31;77250;43.320;28.012;2024-03-29T01:12:02;8.845;74
86590;SHT31;77250;43.320;28.012;2024-03-29T01:12:21;8.845;74
86590;SHT31;77250;43.320;28.012;2024-03-29T01:12:40;8.84;74
86590;SHT31;77250;43.320;28.012;2024-03-29T01:12:59;8.84;74
86590;SHT31;77250;43.320;28.012;2024-03-29T01:13:19;8.835;74
86590;SHT31;77250;43.320;28.012;2024-03-29T01:13:38;8.835;74
86590;SHT31;77250;43.320;28.012;2024-03-29T01:13:57;8.835;74
86590;SHT31;77250;43.320;28.012;2024-03-29T01:14:16;8.835;74
86590;SHT31;77250;43.320;28.012;2024-03-29T01:14:35;8.83;74
86590;SHT31;77250;43.320;28.012;2024-03-29T01:14:54;8.83;74
86590;SHT31;77250;43.320;28.012;2024-03-29T01:15:13;8.83;74
86590;SHT31;77250;43.320;28.012;2024-03-29T01:15:32;8.83;74
86590;SHT31;77250;43.320;28.012;2024-03-29T01:15:51;8.825;74
86590;SHT31;77250;43.320;28.012;2024-03-29T01:16:10;8.825;74
86590;SHT31;77250;43.320;28.012;2024-03-29T01:16:29;8.825;75
86590;SHT31;77250;43.320;28.012;2024-03-29T01:16:49;8.825;75
86590;SHT31;77250;43.320;28.012;2024-03-29T01:17:07;8.825;75
86590;SHT31;77250;43.320;28.012;2024-03-29T01:17:27;8.82;75
86590;SHT31;77250;43.320;28.012;2024-03-29T01:17:46;8.815;75
86590;SHT31;77250;43.320;28.012;2024-03-29T01:18:05;8.81;75
86590;SHT31;77250;43.320;28.012;2024-03-29T01:18:24;8.805;75
86590;SHT31;77250;43.320;28.012;2024-03-29T01:18:43;8.8;75
86590;SHT31;77250;43.320;28.012;2024-03-29T01:19:02;8.795;75
86590;SHT31;77250;43.320;28.012;2024-03-29T01:19:21;8.79;75
86590;SHT31;77250;43.320;28.012;2024-03-29T01:19:40;8.785;75
86590;SHT31;77250;43.320;28.012;2024-03-29T01:19:59;8.775;75
86590;SHT31;77250;43.320;28.012;2024-03-29T01:20:18;8.775;75
86590;SHT31;77250;43.320;28.012;2024-03-29T01:20:38;8.77;75
86590;SHT31;77250;43.320;28.012;2024-03-29T01:20:57;8.77;76
86590;SHT31;77250;43.320;28.012;2024-03-29T01:21:16;8.765;76
86590;SHT31;77250;43.320;28.012;2024-03-29T01:21:35;8.76;75
86590;SHT31;77250;43.320;28.012;2024-03-29T01:21:54;8.755;75
86590;SHT31;77250;43.320;28.012;2024-03-29T01:22:13;8.745;75
86590;SHT31;77250;43.320;28.012;2024-03-29T01:22:32;8.74;75
86590;SHT31;77250;43.320;28.012;2024-03-29T01:22:51;8.735;75
86590;SHT31;77250;43.320;28.012;2024-03-29T01:23:10;8.73;75
86590;SHT31;77250;43.320;28.012;2024-03-29T01:23:29;8.73;75
86590;SHT31;77250;43.320;28.012;2024-03-29T01:23:48;8.73;75
86590;SHT31;77250;43.320;28.012;2024-03-29T01:24:07;8.725;75
86590;SHT31;77250;43.320;28.012;2024-03-29T01:24:26;8.72;75
86590;SHT31;77250;43.320;28.012;2024-03-29T01:24:46;8.715;75
86590;SHT31;77250;43.320;28.012;2024-03-29T01:25:05;8.705;75
86590;SHT31;77250;43.320;28.012;2024-03-29T01:25:24;8.7;75
86590;SHT31;77250;43.320;28.012;2024-03-29T01:25:43;8.695;75
86590;SHT31;77250;43.320;28.012;2024-03-29T01:26:03;8.69;75
86590;SHT31;77250;43.320;28.012;2024-03-29T01:26:23;8.69;75
86590;SHT31;77250;43.320;28.012;2024-03-29T01:26:42;8.685;75
86590;SHT31;77250;43.320;28.012;2024-03-29T01:27:01;8.685;75
86590;SHT31;77250;43.320;28.012;2024-03-29T01:27:20;8.68;75
86590;SHT31;77250;43.320;28.012;2024-03-29T01:27:39;8.68;75
86590;SHT31;77250;43.320;28.012;2024-03-29T01:27:58;8.68;75
86590;SHT31;77250;43.320;28.012;2024-03-29T01:28:17;8.675;75
86590;SHT31;77250;43.320;28.012;2024-03-29T01:28:36;8.675;75
86590;SHT31;77250;43.320;28.012;2024-03-29T01:28:55;8.675;75
86590;SHT31;77250;43.320;28.012;2024-03-29T01:29:14;8.675;75
86590;SHT31;77250;43.320;28.012;2024-03-29T01:29:34;8.675;75
86590;SHT31;77250;43.320;28.012;2024-03-29T01:29:53;8.675;76
86590;SHT31;77250;43.320;28.012;2024-03-29T01:30:12;8.675;76
86590;SHT31;77250;43.320;28.012;2024-03-29T01:30:31;8.67;76
86590;SHT31;77250;43.320;28.012;2024-03-29T01:30:51;8.67;77
86590;SHT31;77250;43.320;28.012;2024-03-29T01:31:11;8.67;77
86590;SHT31;77250;43.320;28.012;2024-03-29T01:31:30;8.67;76
86590;SHT31;77250;43.320;28.012;2024-03-29T01:31:49;8.665;75
86590;SHT31;77250;43.320;28.012;2024-03-29T01:32:08;8.655;75
86590;SHT31;77250;43.320;28.012;2024-03-29T01:32:27;8.65;75
86590;SHT31;77250;43.320;28.012;2024-03-29T01:32:47;8.65;75
86590;SHT31;77250;43.320;28.012;2024-03-29T01:33:06;8.645;75
86590;SHT31;77250;43.320;28.012;2024-03-29T01:33:25;8.64;75
86590;SHT31;77250;43.320;28.012;2024-03-29T01:33:44;8.64;74
86590;SHT31;77250;43.320;28.012;2024-03-29T01:34:03;8.635;74
86590;SHT31;77250;43.320;28.012;2024-03-29T01:34:22;8.63;74
86590;SHT31;77250;43.320;28.012;2024-03-29T01:34:41;8.625;74
86590;SHT31;77250;43.320;28.012;2024-03-29T01:35:00;8.62;75
86590;SHT31;77250;43.320;28.012;2024-03-29T01:35:19;8.615;75
86590;SHT31;77250;43.320;28.012;2024-03-29T01:35:39;8.61;74
86590;SHT31;77250;43.320;28.012;2024-03-29T01:35:58;8.61;74
86590;SHT31;77250;43.320;28.012;2024-03-29T01:36:17;8.605;75
86590;SHT31;77250;43.320;28.012;2024-03-29T01:36:36;8.605;75
86590;SHT31;77250;43.320;28.012;2024-03-29T01:36:55;8.6;74
86590;SHT31;77250;43.320;28.012;2024-03-29T01:37:14;8.6;74
86590;SHT31;77250;43.320;28.012;2024-03-29T01:37:33;8.595;74
86590;SHT31;77250;43.320;28.012;2024-03-29T01:37:52;8.595;74
86590;SHT31;77250;43.320;28.012;2024-03-29T01:38:11;8.59;74
86590;SHT31;77250;43.320;28.012;2024-03-29T01:38:31;8.59;74
86590;SHT31;77250;43.320;28.012;2024-03-29T01:38:51;8.585;74
86590;SHT31;77250;43.320;28.012;2024-03-29T01:39:10;8.58;74
86590;SHT31;77250;43.320;28.012;2024-03-29T01:39:29;8.57;74
86590;SHT31;77250;43.320;28.012;2024-03-29T01:39:48;8.565;75
86590;SHT31;77250;43.320;28.012;2024-03-29T01:40:08;8.555;76
86590;SHT31;77250;43.320;28.012;2024-03-29T01:40:28;8.55;76
86590;SHT31;77250;43.320;28.012;2024-03-29T01:40:46;8.545;76
86590;SHT31;77250;43.320;28.012;2024-03-29T01:41:06;8.54;76
86590;SHT31;77250;43.320;28.012;2024-03-29T01:41:24;8.535;75
86590;SHT31;77250;43.320;28.012;2024-03-29T01:41:44;8.53;75
86590;SHT31;77250;43.320;28.012;2024-03-29T01:42:03;8.525;75
86590;SHT31;77250;43.320;28.012;2024-03-29T01:42:22;8.52;75
86590;SHT31;77250;43.320;28.012;2024-03-29T01:42:41;8.515;75
86590;SHT31;77250;43.320;28.012;2024-03-29T01:43:01;8.505;76
86590;SHT31;77250;43.320;28.012;2024-03-29T01:43:20;8.5;76
86590;SHT31;77250;43.320;28.012;2024-03-29T01:43:39;8.5;76
86590;SHT31;77250;43.320;28.012;2024-03-29T01:43:58;8.495;76
86590;SHT31;77250;43.320;28.012;2024-03-29T01:44:18;8.49;76
86590;SHT31;77250;43.320;28.012;2024-03-29T01:44:37;8.485;76
86590;SHT31;77250;43.320;28.012;2024-03-29T01:44:56;8.485;76
86590;SHT31;77250;43.320;28.012;2024-03-29T01:45:15;8.48;76
86590;SHT31;77250;43.320;28.012;2024-03-29T01:45:36;8.475;76
86590;SHT31;77250;43.320;28.012;2024-03-29T01:45:58;8.47;77
86590;SHT31;77250;43.320;28.012;2024-03-29T01:46:19;8.47;77
86590;SHT31;77250;43.320;28.012;2024-03-29T01:46:40;8.465;77
86590;SHT31;77250;43.320;28.012;2024-03-29T01:46:59;8.465;77
86590;SHT31;77250;43.320;28.012;2024-03-29T01:47:18;8.465;77
86590;SHT31;77250;43.320;28.012;2024-03-29T01:47:38;8.46;77
86590;SHT31;77250;43.320;28.012;2024-03-29T01:47:57;8.46;78
86590;SHT31;77250;43.320;28.012;2024-03-29T01:48:17;8.46;78
86590;SHT31;77250;43.320;28.012;2024-03-29T01:48:39;8.46;78
86590;SHT31;77250;43.320;28.012;2024-03-29T01:48:58;8.46;78
86590;SHT31;77250;43.320;28.012;2024-03-29T01:49:18;8.46;78
86590;SHT31;77250;43.320;28.012;2024-03-29T01:49:37;8.46;78
86590;SHT31;77250;43.320;28.012;2024-03-29T01:49:56;8.46;78
86590;SHT31;77250;43.320;28.012;2024-03-29T01:50:16;8.46;77
86590;SHT31;77250;43.320;28.012;2024-03-29T01:50:35;8.46;76
86590;SHT31;77250;43.320;28.012;2024-03-29T01:50:56;8.46;76
86590;SHT31;77250;43.320;28.012;2024-03-29T01:51:17;8.455;76
86590;SHT31;77250;43.320;28.012;2024-03-29T01:51:38;8.455;76
86590;SHT31;77250;43.320;28.012;2024-03-29T01:51:57;8.455;76
86590;SHT31;77250;43.320;28.012;2024-03-29T01:52:18;8.45;76
86590;SHT31;77250;43.320;28.012;2024-03-29T01:52:39;8.45;76
86590;SHT31;77250;43.320;28.012;2024-03-29T01:52:58;8.45;76
86590;SHT31;77250;43.320;28.012;2024-03-29T01:53:18;8.445;76
86590;SHT31;77250;43.320;28.012;2024-03-29T01:53:38;8.445;76
86590;SHT31;77250;43.320;28.012;2024-03-29T01:53:58;8.44;76
86590;SHT31;77250;43.320;28.012;2024-03-29T01:54:17;8.435;76
86590;SHT31;77250;43.320;28.012;2024-03-29T01:54:37;8.435;76
86590;SHT31;77250;43.320;28.012;2024-03-29T01:54:56;8.43;76
86590;SHT31;77250;43.320;28.012;2024-03-29T01:55:15;8.425;76
86590;SHT31;77250;43.320;28.012;2024-03-29T01:55:35;8.42;76
86590;SHT31;77250;43.320;28.012;2024-03-29T01:55:54;8.415;76
86590;SHT31;77250;43.320;28.012;2024-03-29T01:56:16;8.415;76
86590;SHT31;77250;43.320;28.012;2024-03-29T01:56:39;8.41;76
86590;SHT31;77250;43.320;28.012;2024-03-29T01:56:59;8.405;76
86590;SHT31;77250;43.320;28.012;2024-03-29T01:57:18;8.4;76
86590;SHT31;77250;43.320;28.012;2024-03-29T01:57:38;8.395;76
86590;SHT31;77250;43.320;28.012;2024-03-29T01:57:58;8.39;76
86590;SHT31;77250;43.320;28.012;2024-03-29T01:58:18;8.38;76
86590;SHT31;77250;43.320;28.012;2024-03-29T01:58:38;8.37;77
86590;SHT31;77250;43.320;28.012;2024-03-29T01:58:58;8.365;77
86590;SHT31;77250;43.320;28.012;2024-03-29T01:59:19;8.36;78
86590;SHT31;77250;43.320;28.012;2024-03-29T01:59:40;8.35;78
86590;SHT31;77250;43.320;28.012;2024-03-29T02:00:01;8.345;78
86590;SHT31;77250;43.320;28.012;2024-03-29T02:00:22;8.34;78
86590;SHT31;77250;43.320;28.012;2024-03-29T02:00:48;8.335;78
86590;SHT31;77250;43.320;28.012;2024-03-29T02:01:11;8.33;78
86590;SHT31;77250;43.320;28.012;2024-03-29T02:01:30;8.325;78
86590;SHT31;77250;43.320;28.012;2024-03-29T02:01:50;8.32;79
86590;SHT31;77250;43.320;28.012;2024-03-29T02:02:09;8.315;79
86590;SHT31;77250;43.320;28.012;2024-03-29T02:02:29;8.31;80
86590;SHT31;77250;43.320;28.012;2024-03-29T02:02:49;8.31;81
86590;SHT31;77250;43.320;28.012;2024-03-29T02:03:08;8.305;81
86590;SHT31;77250;43.320;28.012;2024-03-29T02:03:27;8.3;81
86590;SHT31;77250;43.320;28.012;2024-03-29T02:03:46;8.3;81
86590;SHT31;77250;43.320;28.012;2024-03-29T02:04:08;8.3;81
86590;SHT31;77250;43.320;28.012;2024-03-29T02:04:27;8.295;81
86590;SHT31;77250;43.320;28.012;2024-03-29T02:04:46;8.295;81
86590;SHT31;77250;43.320;28.012;2024-03-29T02:05:06;8.295;81
86590;SHT31;77250;43.320;28.012;2024-03-29T02:05:25;8.295;81
86590;SHT31;77250;43.320;28.012;2024-03-29T02:05:45;8.3;81
86590;SHT31;77250;43.320;28.012;2024-03-29T02:06:05;8.3;81
86590;SHT31;77250;43.320;28.012;2024-03-29T02:06:25;8.3;81
86590;SHT31;77250;43.320;28.012;2024-03-29T02:06:45;8.305;80
86590;SHT31;77250;43.320;28.012;2024-03-29T02:07:04;8.305;80